Time;durP1;ratioP1;P1;durP2;ratioP2;P2;SDS_P1;SDS_P2;PMS_P1;PMS_P2;Temp;Humidity;BMP_temperature;BMP_pressure;BME280_temperature;BME280_humidity;BME280_pressure;Samples;Min_cycle;Max_cycle;Signal;HPM_P1;HPM_P2
2021/08/31 00:02:00;;;;;;;27.02;16.38;;;;;;;14.64;100.00;102372.38;2615713;36;20165;-67
2021/08/31 00:04:31;;;;;;;20.90;15.00;;;;;;;14.59;100.00;102385.44;2616757;31;20219;-69
2021/08/31 00:06:59;;;;;;;25.45;16.85;;;;;;;14.58;100.00;102389.13;2617389;36;20110;-73
2021/08/31 00:09:28;;;;;;;22.80;15.75;;;;;;;14.53;100.00;102386.78;2616547;36;20614;-66
2021/08/31 00:11:56;;;;;;;25.58;15.88;;;;;;;14.50;100.00;102388.88;2616169;36;20553;-70
2021/08/31 00:14:24;;;;;;;23.90;15.88;;;;;;;14.44;100.00;102387.53;2615504;36;20122;-71
2021/08/31 00:16:52;;;;;;;25.67;16.17;;;;;;;14.42;100.00;102383.22;2616390;36;20118;-69
2021/08/31 00:19:21;;;;;;;26.92;15.93;;;;;;;14.42;100.00;102394.06;2616560;36;20610;-69
2021/08/31 00:21:51;;;;;;;25.35;15.43;;;;;;;14.44;100.00;102398.38;2615354;36;20110;-67
2021/08/31 00:24:22;;;;;;;29.63;16.63;;;;;;;14.40;100.00;102396.00;2616564;31;20114;-67
2021/08/31 00:26:50;;;;;;;24.88;16.05;;;;;;;14.47;100.00;102391.81;2616448;36;20153;-68
2021/08/31 00:29:18;;;;;;;29.70;17.20;;;;;;;14.47;100.00;102394.53;2616340;36;20069;-71
2021/08/31 00:31:46;;;;;;;26.95;15.43;;;;;;;14.41;100.00;102393.19;2613925;36;20030;-67
2021/08/31 00:34:15;;;;;;;22.67;15.30;;;;;;;14.35;100.00;102389.13;2616846;31;20037;-67
2021/08/31 00:36:43;;;;;;;26.50;15.48;;;;;;;14.38;100.00;102396.13;2616910;36;20150;-67
2021/08/31 00:39:14;;;;;;;27.65;15.90;;;;;;;14.42;100.00;102389.50;2616309;36;20259;-66
2021/08/31 00:41:42;;;;;;;26.75;15.93;;;;;;;14.36;100.00;102395.41;2615304;36;20085;-71
2021/08/31 00:44:19;;;;;;;27.23;14.07;;;;;;;14.32;100.00;102404.75;2616841;36;20114;-69
2021/08/31 00:46:48;;;;;;;26.52;15.02;;;;;;;14.26;100.00;102395.28;2615985;36;20122;-69
2021/08/31 00:49:16;;;;;;;21.42;15.15;;;;;;;14.27;100.00;102404.28;2617300;36;20072;-71
2021/08/31 00:51:45;;;;;;;23.90;15.65;;;;;;;14.27;100.00;102401.56;2616231;36;20121;-67
2021/08/31 00:54:17;;;;;;;27.58;15.15;;;;;;;14.22;100.00;102410.03;2615688;36;20039;-67
2021/08/31 00:56:46;;;;;;;28.38;16.17;;;;;;;14.26;100.00;102408.81;2615661;36;20089;-67
2021/08/31 00:59:14;;;;;;;25.58;14.70;;;;;;;14.26;100.00;102408.81;2616886;36;20022;-71
2021/08/31 01:01:42;;;;;;;21.30;14.52;;;;;;;14.24;100.00;102408.09;2616264;31;20487;-70
2021/08/31 01:04:10;;;;;;;28.27;14.55;;;;;;;14.18;100.00;102419.41;2617131;36;20122;-69
2021/08/31 01:06:39;;;;;;;30.55;16.17;;;;;;;14.19;100.00;102413.00;2617149;31;20531;-67
2021/08/31 01:09:08;;;;;;;26.40;15.25;;;;;;;14.25;100.00;102407.13;2615779;36;20176;-67
2021/08/31 01:11:39;;;;;;;26.45;15.82;;;;;;;14.20;100.00;102417.44;2616487;36;20026;-67
2021/08/31 01:14:08;;;;;;;28.58;15.63;;;;;;;14.23;100.00;102411.78;2617196;36;20524;-67
2021/08/31 01:16:37;;;;;;;25.60;15.45;;;;;;;14.19;100.00;102418.41;2616696;36;20174;-66
2021/08/31 01:19:05;;;;;;;27.45;15.35;;;;;;;14.15;100.00;102419.66;2615867;36;20162;-68
2021/08/31 01:21:34;;;;;;;26.85;14.65;;;;;;;14.13;100.00;102421.59;2616457;31;20486;-67
2021/08/31 01:24:02;;;;;;;27.83;15.13;;;;;;;14.07;100.00;102414.81;2616266;36;20034;-67
2021/08/31 01:26:33;;;;;;;30.75;16.65;;;;;;;13.99;100.00;102422.72;2615731;36;20146;-66
2021/08/31 01:31:29;;;;;;;23.65;13.85;;;;;;;13.93;100.00;102413.22;2613510;54;20038;-66
2021/08/31 01:33:57;;;;;;;32.70;15.60;;;;;;;13.95;100.00;102413.94;2616914;36;20106;-67
2021/08/31 01:36:28;;;;;;;26.58;14.82;;;;;;;13.99;100.00;102420.84;2615730;36;20113;-67
2021/08/31 01:38:58;;;;;;;25.48;14.55;;;;;;;14.00;100.00;102425.28;2615424;31;20054;-67
2021/08/31 01:41:28;;;;;;;26.77;15.38;;;;;;;13.90;100.00;102424.28;2615843;36;20137;-67
2021/08/31 01:43:58;;;;;;;26.13;14.35;;;;;;;13.77;100.00;102426.22;2616896;36;20207;-68
2021/08/31 01:46:27;;;;;;;26.95;14.65;;;;;;;13.83;100.00;102431.16;2615284;36;20125;-68
2021/08/31 01:48:55;;;;;;;23.63;15.13;;;;;;;13.80;100.00;102432.25;2614964;36;20034;-67
2021/08/31 01:51:23;;;;;;;27.10;15.45;;;;;;;13.74;100.00;102432.72;2615934;36;20460;-74
2021/08/31 01:53:51;;;;;;;23.90;13.82;;;;;;;13.72;100.00;102428.41;2615880;36;20042;-69
2021/08/31 01:56:19;;;;;;;26.13;15.02;;;;;;;13.74;100.00;102431.88;2615229;31;22033;-68
2021/08/31 01:58:48;;;;;;;23.05;14.73;;;;;;;13.72;100.00;102434.69;2615157;36;20038;-72
2021/08/31 02:01:18;;;;;;;35.00;16.13;;;;;;;13.72;100.00;102433.81;2615717;36;20142;-71
2021/08/31 02:03:47;;;;;;;28.58;13.88;;;;;;;13.75;100.00;102428.16;2613917;36;20142;-67
2021/08/31 02:06:15;;;;;;;27.60;14.48;;;;;;;13.73;100.00;102431.00;2616111;36;20348;-67
2021/08/31 02:08:43;;;;;;;29.30;14.75;;;;;;;13.82;100.00;102432.13;2616602;36;20149;-67
2021/08/31 02:11:11;;;;;;;24.42;14.30;;;;;;;13.84;100.00;102428.31;2616951;31;20074;-69
2021/08/31 02:13:39;;;;;;;27.42;14.27;;;;;;;13.79;100.00;102427.81;2615828;36;20605;-68
2021/08/31 02:16:08;;;;;;;25.92;13.95;;;;;;;13.81;100.00;102422.31;2616012;36;20138;-66
2021/08/31 02:18:40;;;;;;;22.52;13.10;;;;;;;13.85;100.00;102426.47;2616308;36;20407;-67
2021/08/31 02:21:09;;;;;;;28.17;15.00;;;;;;;13.71;100.00;102427.56;2616154;36;20531;-68
2021/08/31 02:23:39;;;;;;;24.35;12.30;;;;;;;13.75;100.00;102423.63;2616047;36;20034;-67
2021/08/31 02:26:07;;;;;;;20.92;12.93;;;;;;;13.73;100.00;102424.72;2616461;31;20693;-71
2021/08/31 02:28:36;;;;;;;22.20;13.02;;;;;;;13.58;100.00;102422.22;2616108;36;20051;-67
2021/08/31 02:31:08;;;;;;;18.23;11.87;;;;;;;13.54;100.00;102420.72;2616233;36;20126;-68
2021/08/31 02:33:38;;;;;;;20.85;12.43;;;;;;;13.46;100.00;102428.56;2617007;31;20518;-70
2021/08/31 02:36:07;;;;;;;19.80;11.18;;;;;;;13.45;100.00;102422.28;2615387;36;20122;-72
2021/08/31 02:38:35;;;;;;;16.15;10.98;;;;;;;13.41;100.00;102419.94;2616033;36;20681;-67
2021/08/31 04:19:45;;;;;;;25.05;10.50;;;;;;;13.48;100.00;102438.28;2613003;54;20042;-67
2021/08/31 04:22:14;;;;;;;18.55;9.60;;;;;;;13.55;100.00;102438.69;2614940;31;20113;-70
2021/08/31 04:24:42;;;;;;;17.90;9.77;;;;;;;13.66;100.00;102446.84;2616677;36;20086;-68
2021/08/31 04:27:10;;;;;;;18.67;11.07;;;;;;;13.73;100.00;102447.22;2615500;36;20113;-67
2021/08/31 04:29:38;;;;;;;19.55;9.48;;;;;;;13.83;100.00;102447.38;2616588;36;20126;-67
2021/08/31 04:32:07;;;;;;;20.67;9.88;;;;;;;13.87;100.00;102446.19;2616189;36;20081;-67
2021/08/31 04:34:35;;;;;;;26.02;12.35;;;;;;;14.16;100.00;102453.84;2615905;36;20085;-70
2021/08/31 04:37:06;;;;;;;17.20;11.03;;;;;;;14.24;100.00;102451.41;2615085;36;20134;-67
2021/08/31 04:39:34;;;;;;;23.08;10.80;;;;;;;14.23;100.00;102455.09;2616546;36;20296;-72
2021/08/31 04:42:06;;;;;;;21.30;11.35;;;;;;;14.36;100.00;102455.00;2615894;36;20153;-66
2021/08/31 04:44:35;;;;;;;24.88;11.98;;;;;;;14.43;100.00;102467.06;2616043;36;20105;-68
2021/08/31 04:47:03;;;;;;;28.63;11.73;;;;;;;14.48;100.00;102464.84;2616088;36;20022;-67
2021/08/31 04:49:31;;;;;;;25.30;10.63;;;;;;;14.51;100.00;102470.00;2615771;31;20535;-68
2021/08/31 04:51:59;;;;;;;23.25;10.85;;;;;;;14.55;100.00;102473.34;2615293;36;20070;-71
2021/08/31 04:54:30;;;;;;;26.70;11.38;;;;;;;14.59;100.00;102466.72;2616163;36;20546;-69
2021/08/31 04:56:58;;;;;;;22.80;11.90;;;;;;;14.65;100.00;102470.78;2617004;31;20491;-67
2021/08/31 04:59:27;;;;;;;20.30;11.93;;;;;;;14.72;100.00;102463.88;2616348;36;20523;-69
2021/08/31 05:01:55;;;;;;;24.80;10.60;;;;;;;14.65;100.00;102466.25;2615858;36;20034;-66
2021/08/31 05:04:28;;;;;;;22.77;11.47;;;;;;;14.60;100.00;102468.41;2617089;36;20077;-66
2021/08/31 05:06:56;;;;;;;24.65;11.15;;;;;;;14.56;100.00;102466.97;2615502;36;20034;-70
2021/08/31 05:09:24;;;;;;;24.80;11.02;;;;;;;14.53;100.00;102472.59;2615016;36;20130;-67
2021/08/31 05:11:55;;;;;;;23.85;10.32;;;;;;;14.52;100.00;102476.31;2615600;36;20081;-70
2021/08/31 05:14:23;;;;;;;26.15;12.50;;;;;;;14.54;100.00;102480.59;2616640;36;20038;-67
2021/08/31 05:16:51;;;;;;;17.02;9.43;;;;;;;14.59;100.00;102480.25;2616483;36;20569;-70
2021/08/31 05:19:20;;;;;;;22.30;10.82;;;;;;;14.58;100.00;102480.38;2617374;31;20524;-71
2021/08/31 05:21:50;;;;;;;25.75;11.13;;;;;;;14.59;100.00;102482.97;2615981;31;20530;-69
2021/08/31 05:24:18;;;;;;;22.52;11.45;;;;;;;14.62;100.00;102477.34;2617216;36;20023;-70
2021/08/31 05:26:46;;;;;;;20.90;10.53;;;;;;;14.76;100.00;102478.94;2616036;36;20126;-68
2021/08/31 05:29:17;;;;;;;18.55;10.70;;;;;;;14.78;100.00;102482.38;2616526;36;20415;-68
2021/08/31 05:31:47;;;;;;;20.33;9.45;;;;;;;14.78;100.00;102486.94;2616792;36;20154;-68
2021/08/31 05:34:15;;;;;;;19.65;10.38;;;;;;;14.80;100.00;102485.81;2616644;36;20023;-67
2021/08/31 05:36:43;;;;;;;23.42;11.15;;;;;;;14.83;100.00;102490.16;2616180;31;20114;-68
2021/08/31 05:39:12;;;;;;;15.10;9.43;;;;;;;14.86;100.00;102495.31;2614076;36;20054;-68
2021/08/31 05:41:40;;;;;;;22.08;11.10;;;;;;;14.94;100.00;102494.69;2611705;36;20125;-67
2021/08/31 05:44:08;;;;;;;22.37;10.10;;;;;;;15.06;100.00;102497.28;2611664;36;20038;-68
2021/08/31 05:46:39;;;;;;;19.80;10.93;;;;;;;15.02;100.00;102484.94;2608518;36;20030;-68
2021/08/31 05:49:07;;;;;;;19.92;10.55;;;;;;;15.09;100.00;102482.59;2609301;36;20241;-72
2021/08/31 05:51:36;;;;;;;23.23;9.35;;;;;;;15.22;100.00;102496.88;2608882;36;20551;-68
2021/08/31 05:54:04;;;;;;;26.95;12.32;;;;;;;15.29;100.00;102497.22;2610221;36;20544;-67
2021/08/31 05:56:32;;;;;;;22.27;10.07;;;;;;;15.44;100.00;102496.94;2611115;36;20162;-68
2021/08/31 05:59:00;;;;;;;20.42;10.25;;;;;;;15.37;100.00;102494.75;2610216;36;20038;-71
2021/08/31 06:01:28;;;;;;;22.08;10.55;;;;;;;15.44;100.00;102505.06;2611223;36;20118;-72
2021/08/31 06:03:59;;;;;;;18.17;10.10;;;;;;;15.53;100.00;102504.28;2609801;36;20169;-68
2021/08/31 06:06:28;;;;;;;23.23;9.73;;;;;;;15.59;100.00;102501.06;2610138;31;20101;-68
2021/08/31 06:08:56;;;;;;;;;;;;;;;15.75;100.00;102503.34;2610622;36;20039;-68
2021/08/31 06:11:24;;;;;;;24.10;9.90;;;;;;;15.81;100.00;102496.56;2610812;36;20013;-68
2021/08/31 06:16:19;;;;;;;20.75;9.73;;;;;;;15.88;100.00;102503.22;2610914;36;20506;-68
2021/08/31 06:18:47;;;;;;;20.13;10.73;;;;;;;15.81;100.00;102507.44;2608438;36;20106;-68
2021/08/31 06:21:18;;;;;;;19.15;9.90;;;;;;;15.69;100.00;102510.16;2609210;36;20537;-69
2021/08/31 06:23:46;;;;;;;16.45;9.35;;;;;;;15.74;100.00;102510.66;2610892;36;20026;-68
2021/08/31 06:26:22;;;;;;;29.13;10.63;;;;;;;15.85;100.00;102509.75;2609863;36;21616;-68
2021/08/31 06:28:50;;;;;;;24.42;9.57;;;;;;;15.89;100.00;102513.09;2614386;36;20121;-68
2021/08/31 06:31:18;;;;;;;20.75;10.10;;;;;;;15.90;100.00;102515.66;2611209;36;20122;-68
2021/08/31 06:33:47;;;;;;;19.15;9.38;;;;;;;15.95;100.00;102509.84;2613490;36;20114;-68
2021/08/31 06:36:18;;;;;;;17.00;9.65;;;;;;;15.95;100.00;102518.00;2613595;36;20061;-70
2021/08/31 06:38:47;;;;;;;20.02;10.65;;;;;;;15.96;100.00;102517.00;2614108;36;20114;-68
2021/08/31 06:41:15;;;;;;;18.20;9.18;;;;;;;16.04;100.00;102514.47;2614254;36;20142;-69
2021/08/31 06:43:45;;;;;;;15.60;9.03;;;;;;;16.11;100.00;102521.09;2613823;36;20114;-68
2021/08/31 06:46:14;;;;;;;17.88;9.07;;;;;;;16.21;100.00;102523.03;2603301;36;20314;-72
2021/08/31 06:48:42;;;;;;;20.15;9.48;;;;;;;16.26;100.00;102515.34;2580112;36;20442;-68
2021/08/31 06:51:11;;;;;;;17.73;8.95;;;;;;;16.17;100.00;102514.28;2573446;36;20065;-69
2021/08/31 06:53:43;;;;;;;18.83;10.02;;;;;;;16.31;100.00;102515.78;2577148;36;20493;-68
2021/08/31 06:56:11;;;;;;;21.08;9.48;;;;;;;16.19;100.00;102506.00;2575286;36;20053;-67
2021/08/31 06:58:39;;;;;;;18.80;8.93;;;;;;;16.27;100.00;102515.22;2576746;36;20057;-67
2021/08/31 07:01:08;;;;;;;14.15;8.25;;;;;;;16.38;100.00;102503.41;2576022;36;20839;-68
2021/08/31 07:03:36;;;;;;;17.02;8.75;;;;;;;16.41;100.00;102505.84;2577289;31;20118;-69
2021/08/31 07:06:04;;;;;;;17.00;8.55;;;;;;;16.49;100.00;102513.34;2575766;36;21678;-69
2021/08/31 07:08:32;;;;;;;14.23;8.18;;;;;;;16.59;100.00;102514.28;2576885;36;20126;-67
2021/08/31 07:11:03;;;;;;;18.20;8.83;;;;;;;16.57;100.00;102515.38;2578347;36;20137;-67
2021/08/31 07:13:31;;;;;;;16.23;8.60;;;;;;;16.78;100.00;102516.22;2576672;36;20114;-69
2021/08/31 07:16:00;;;;;;;17.63;8.27;;;;;;;16.82;100.00;102514.06;2576894;36;20046;-69
2021/08/31 07:18:28;;;;;;;14.18;7.85;;;;;;;16.79;100.00;102511.63;2578545;36;20359;-67
2021/08/31 07:20:56;;;;;;;16.00;8.63;;;;;;;16.94;100.00;102514.88;2578066;36;20146;-68
2021/08/31 07:23:24;;;;;;;18.45;8.63;;;;;;;16.95;100.00;102522.88;2576905;36;20149;-67
2021/08/31 07:25:52;;;;;;;18.00;8.52;;;;;;;17.11;100.00;102521.53;2577069;36;20033;-67
2021/08/31 07:28:23;;;;;;;16.40;8.47;;;;;;;17.01;100.00;102518.75;2577694;36;20525;-70
2021/08/31 07:30:52;;;;;;;15.43;7.68;;;;;;;17.23;100.00;102522.28;2577489;36;20835;-68
2021/08/31 07:33:20;;;;;;;11.47;8.40;;;;;;;17.29;100.00;102521.72;2596422;36;20154;-71
2021/08/31 07:35:48;;;;;;;15.23;7.90;;;;;;;17.50;100.00;102518.88;2616690;36;20102;-67
2021/08/31 07:38:34;;;;;;;12.93;7.50;;;;;;;17.69;100.00;102520.75;2614054;36;20047;-67
2021/08/31 07:41:02;;;;;;;17.17;7.93;;;;;;;17.86;100.00;102514.59;2615921;36;20118;-67
2021/08/31 07:43:33;;;;;;;15.50;8.03;;;;;;;18.04;100.00;102516.63;2616210;36;20170;-67
2021/08/31 07:46:01;;;;;;;13.18;7.07;;;;;;;17.90;100.00;102515.19;2615073;36;20121;-68
2021/08/31 07:48:29;;;;;;;12.07;6.73;;;;;;;18.06;100.00;102520.06;2615795;36;20635;-71
2021/08/31 07:50:57;;;;;;;15.27;7.20;;;;;;;18.30;100.00;102516.88;2616857;36;20023;-67
2021/08/31 07:53:25;;;;;;;15.20;6.53;;;;;;;18.27;100.00;102516.28;2616547;36;20317;-68
2021/08/31 07:55:54;;;;;;;12.97;6.80;;;;;;;18.10;100.00;102518.75;2616816;36;20141;-67
2021/08/31 07:58:22;;;;;;;11.50;6.80;;;;;;;18.04;100.00;102531.09;2616732;36;20034;-68
2021/08/31 08:00:53;;;;;;;16.80;7.13;;;;;;;18.18;100.00;102526.22;2618215;31;20500;-67
2021/08/31 08:03:21;;;;;;;13.45;6.60;;;;;;;18.26;100.00;102522.78;2617662;36;20030;-70
2021/08/31 08:05:49;;;;;;;13.20;6.50;;;;;;;18.40;100.00;102519.56;2617931;36;20077;-67
2021/08/31 08:08:17;;;;;;;12.90;6.55;;;;;;;18.34;100.00;102525.59;2616974;36;20174;-66
2021/08/31 08:10:46;;;;;;;14.33;6.20;;;;;;;18.38;100.00;102522.44;2617247;36;20026;-67
2021/08/31 08:13:14;;;;;;;13.27;5.73;;;;;;;18.40;100.00;102519.56;2617206;36;20358;-70
2021/08/31 08:15:42;;;;;;;16.83;6.33;;;;;;;18.37;100.00;102528.91;2617730;31;20061;-68
2021/08/31 08:18:13;;;;;;;13.18;5.78;;;;;;;18.42;100.00;102528.47;2617473;36;20030;-69
2021/08/31 08:20:43;;;;;;;11.27;5.60;;;;;;;18.39;100.00;102528.78;2617785;36;20050;-70
2021/08/31 08:23:12;;;;;;;10.23;5.43;;;;;;;18.32;100.00;102536.66;2617165;36;20026;-68
2021/08/31 08:25:41;;;;;;;11.70;5.35;;;;;;;18.28;100.00;102545.28;2617306;36;20029;-67
2021/08/31 08:28:09;;;;;;;13.38;5.95;;;;;;;18.38;100.00;102541.53;2617714;36;20079;-69
2021/08/31 08:30:37;;;;;;;14.73;6.07;;;;;;;18.38;100.00;102540.66;2617041;36;20034;-69
2021/08/31 08:33:05;;;;;;;9.27;5.25;;;;;;;18.40;100.00;102544.09;2616461;36;20030;-70
2021/08/31 08:35:36;;;;;;;23.35;6.20;;;;;;;18.54;100.00;102542.78;2617497;31;20061;-67
2021/08/31 08:38:05;;;;;;;12.23;6.07;;;;;;;18.85;100.00;102540.66;2617115;36;20038;-67
2021/08/31 08:40:35;;;;;;;11.27;5.82;;;;;;;18.88;100.00;102548.59;2617573;36;20056;-67
2021/08/31 08:43:04;;;;;;;12.75;6.05;;;;;;;18.64;100.00;102542.75;2617471;36;20027;-67
2021/08/31 08:45:32;;;;;;;15.20;5.85;;;;;;;18.73;100.00;102545.44;2617538;36;20077;-66
2021/08/31 08:48:01;;;;;;;12.40;5.30;;;;;;;18.91;100.00;102545.56;2617843;36;20038;-67
2021/08/31 08:50:29;;;;;;;11.93;5.32;;;;;;;18.88;100.00;102554.03;2617666;36;20023;-68
2021/08/31 08:53:02;;;;;;;14.02;5.57;;;;;;;18.86;100.00;102549.72;2616968;36;20027;-67
2021/08/31 08:55:30;;;;;;;15.30;5.68;;;;;;;18.89;100.00;102555.78;2617582;36;20033;-68
2021/08/31 08:57:59;;;;;;;12.97;5.77;;;;;;;19.02;100.00;102546.38;2617742;36;20026;-67
2021/08/31 09:01:00;;;;;;;14.20;5.73;;;;;;;18.96;100.00;102555.16;2617456;36;20069;-68
2021/08/31 09:03:30;;;;;;;10.02;5.50;;;;;;;19.23;100.00;102543.41;2617508;36;20893;-68
2021/08/31 09:06:13;;;;;;;14.15;5.32;;;;;;;19.02;100.00;102562.75;2616314;36;20034;-68
2021/08/31 09:08:43;;;;;;;14.77;5.75;;;;;;;19.06;100.00;102564.16;2617551;36;20059;-69
2021/08/31 09:11:20;;;;;;;13.60;5.43;;;;;;;19.10;100.00;102568.31;2617468;36;20045;-66
2021/08/31 09:13:49;;;;;;;10.15;4.95;;;;;;;19.04;100.00;102567.03;2616891;36;20074;-69
2021/08/31 09:16:29;;;;;;;13.27;5.65;;;;;;;18.73;100.00;102566.41;2617430;31;20053;-66
2021/08/31 09:18:59;;;;;;;9.80;5.45;;;;;;;18.84;100.00;102568.94;2617486;36;20552;-66
2021/08/31 09:21:30;;;;;;;10.45;5.38;;;;;;;19.17;100.00;102555.78;2617433;36;20046;-69
2021/08/31 09:23:59;;;;;;;11.95;5.25;;;;;;;19.67;100.00;102559.06;2617101;36;20026;-67
2021/08/31 09:26:37;;;;;;;11.10;5.47;;;;;;;20.02;100.00;102551.91;2617310;36;20034;-67
2021/08/31 09:29:13;;;;;;;11.57;5.50;;;;;;;19.95;100.00;102560.75;2617446;36;20022;-67
2021/08/31 09:32:03;;;;;;;12.57;5.15;;;;;;;20.22;100.00;102561.66;2617867;36;20026;-66
2021/08/31 09:34:43;;;;;;;11.07;4.80;;;;;;;20.34;100.00;102555.94;2617611;36;20022;-68
2021/08/31 09:37:28;;;;;;;12.77;4.88;;;;;;;20.40;100.00;102560.78;2617212;36;20566;-68
2021/08/31 09:40:04;;;;;;;11.65;4.72;;;;;;;20.60;100.00;102559.53;2617714;36;20420;-69
2021/08/31 09:42:33;;;;;;;10.98;4.65;;;;;;;20.63;100.00;102567.44;2617793;36;20118;-66
2021/08/31 09:45:07;;;;;;;13.75;5.00;;;;;;;20.77;100.00;102565.16;2617477;36;20536;-69
2021/08/31 09:47:39;;;;;;;12.93;5.28;;;;;;;20.57;100.00;102565.34;2617677;36;20086;-70
2021/08/31 09:50:10;;;;;;;15.60;5.40;;;;;;;20.45;100.00;102574.81;2618056;31;20513;-66
2021/08/31 09:52:38;;;;;;;11.18;4.80;;;;;;;20.62;100.00;102568.44;2617169;36;20118;-69
2021/08/31 09:55:07;;;;;;;9.15;4.82;;;;;;;20.47;100.00;102562.69;2616628;31;20089;-69
2021/08/31 09:57:37;;;;;;;;;;;;;;;20.51;100.00;102562.38;2616991;36;20456;-67
2021/08/31 10:00:08;;;;;;;12.40;4.82;;;;;;;20.22;100.00;102569.00;2616938;36;19962;-67
2021/08/31 10:02:40;;;;;;;11.25;5.25;;;;;;;20.46;100.00;102577.41;2617240;36;20038;-69
2021/08/31 10:05:09;;;;;;;13.60;4.97;;;;;;;20.47;100.00;102575.53;2616121;36;20034;-66
2021/08/31 10:07:39;;;;;;;9.07;4.97;;;;;;;20.55;100.00;102566.50;2616302;36;20069;-67
2021/08/31 10:10:10;;;;;;;9.60;4.75;;;;;;;20.57;100.00;102570.81;2614794;36;20039;-66
2021/08/31 10:12:39;;;;;;;10.18;4.47;;;;;;;20.80;100.00;102570.28;2616272;36;20166;-70
2021/08/31 10:15:11;;;;;;;9.05;4.50;;;;;;;20.65;100.00;102561.78;2616187;36;20084;-67
2021/08/31 10:17:45;;;;;;;11.05;5.20;;;;;;;20.77;100.00;102573.34;2616208;36;20106;-67
2021/08/31 10:20:16;;;;;;;8.95;5.10;;;;;;;20.74;100.00;102565.47;2615809;36;20029;-66
2021/08/31 10:22:45;;;;;;;11.80;4.75;;;;;;;20.74;100.00;102562.72;2616057;36;20118;-67
2021/08/31 10:25:13;;;;;;;14.02;4.82;;;;;;;20.82;100.00;102560.91;2614601;36;20022;-66
2021/08/31 10:27:44;;;;;;;12.48;5.32;;;;;;;20.98;100.00;102571.09;2616303;31;20539;-68
2021/08/31 10:30:35;;;;;;;10.55;4.90;;;;;;;20.82;100.00;102573.75;2615648;36;20037;-66
2021/08/31 10:33:36;;;;;;;15.95;5.25;;;;;;;20.99;100.00;102572.81;2616472;36;20068;-66
2021/08/31 10:36:08;;;;;;;9.10;4.25;;;;;;;20.98;100.00;102571.09;2616453;36;20146;-68
2021/08/31 10:38:55;;;;;;;13.85;4.70;;;;;;;20.52;100.00;102580.50;2616675;36;20034;-67
2021/08/31 10:41:50;;;;;;;10.73;4.57;;;;;;;20.78;100.00;102572.34;2616381;36;20034;-67
2021/08/31 10:44:44;;;;;;;9.88;4.53;;;;;;;20.71;100.00;102590.44;2616003;36;20061;-69
2021/08/31 10:47:15;;;;;;;16.50;5.18;;;;;;;20.41;100.00;102578.91;2616625;36;20034;-66
2021/08/31 10:50:15;;;;;;;11.05;4.40;;;;;;;20.34;100.00;102578.66;2616389;36;20558;-67
2021/08/31 10:52:49;;;;;;;13.05;4.65;;;;;;;20.78;100.00;102580.56;2616423;36;20030;-65
2021/08/31 10:55:35;;;;;;;12.73;4.90;;;;;;;21.39;100.00;102588.72;2616112;31;20159;-67
2021/08/31 10:58:06;;;;;;;8.55;4.15;;;;;;;22.12;100.00;102585.28;2615625;36;20069;-67
2021/08/31 11:00:54;;;;;;;12.43;4.25;;;;;;;22.78;100.00;102587.16;2616192;36;20030;-67
2021/08/31 11:03:34;;;;;;;8.98;4.10;;;;;;;22.68;100.00;102590.94;2616472;36;20053;-67
2021/08/31 11:06:28;;;;;;;10.90;5.07;;;;;;;21.98;100.00;102586.84;2616692;36;20085;-65
2021/08/31 11:09:20;;;;;;;11.43;4.90;;;;;;;21.63;100.00;102593.44;2615364;36;20041;-67
2021/08/31 11:11:51;;;;;;;12.95;4.75;;;;;;;21.30;100.00;102591.44;2614403;36;20026;-69
2021/08/31 11:14:20;;;;;;;12.02;4.75;;;;;;;21.24;100.00;102591.22;2616659;31;20045;-65
2021/08/31 11:16:49;;;;;;;9.88;4.07;;;;;;;20.96;100.00;102588.69;2616015;31;20525;-66
2021/08/31 11:19:27;;;;;;;13.82;4.35;;;;;;;21.12;100.00;102571.50;2617262;31;20511;-67
2021/08/31 11:21:57;;;;;;;10.73;4.35;;;;;;;20.91;100.00;102583.72;2616755;36;20026;-64
2021/08/31 11:24:28;;;;;;;8.38;4.45;;;;;;;20.65;100.00;102592.75;2616360;31;20109;-65
2021/08/31 11:27:02;;;;;;;12.07;4.53;;;;;;;20.85;100.00;102586.22;2616330;36;20142;-67
2021/08/31 11:29:30;;;;;;;10.10;4.63;;;;;;;21.68;100.00;102583.69;2616429;36;20053;-66
2021/08/31 11:32:01;;;;;;;10.85;4.60;;;;;;;22.24;100.00;102577.56;2616482;36;20063;-65
2021/08/31 11:34:30;;;;;;;11.60;4.60;;;;;;;22.82;100.00;102583.00;2616412;36;20435;-66
2021/08/31 11:37:07;;;;;;;14.48;5.05;;;;;;;22.21;100.00;102583.41;2616515;36;20059;-68
2021/08/31 11:39:38;;;;;;;9.18;4.13;;;;;;;22.57;100.00;102592.16;2616347;36;20074;-68
2021/08/31 11:42:07;;;;;;;14.52;4.70;;;;;;;22.52;100.00;102593.72;2616113;31;20783;-68
2021/08/31 11:44:35;;;;;;;11.13;4.55;;;;;;;22.25;100.00;102594.91;2615854;31;20121;-67
2021/08/31 11:47:03;;;;;;;13.05;4.90;;;;;;;22.69;100.00;102589.06;2615425;36;20118;-68
2021/08/31 11:49:32;;;;;;;11.60;5.43;;;;;;;22.85;100.00;102593.63;2616439;36;20034;-69
2021/08/31 11:52:05;;;;;;;13.35;4.35;;;;;;;22.20;100.00;102593.53;2615974;36;20158;-68
2021/08/31 11:54:35;;;;;;;10.73;4.40;;;;;;;22.61;100.00;102586.31;2616085;36;20031;-66
2021/08/31 11:57:08;;;;;;;14.23;4.72;;;;;;;22.35;100.00;102606.59;2615289;36;20151;-68
2021/08/31 11:59:43;;;;;;;10.35;4.57;;;;;;;21.89;100.00;102596.06;2617067;31;20580;-68
2021/08/31 12:02:19;;;;;;;14.73;4.80;;;;;;;22.11;100.00;102601.91;2615836;36;20023;-67
2021/08/31 12:05:04;;;;;;;11.02;4.38;;;;;;;22.17;100.00;102599.34;2616447;31;20037;-67
2021/08/31 12:07:35;;;;;;;7.60;4.18;;;;;;;22.03;100.00;102597.28;2616409;36;20072;-65
2021/08/31 12:10:05;;;;;;;11.93;5.20;;;;;;;21.97;100.00;102596.06;2616155;36;20053;-69
2021/08/31 12:12:37;;;;;;;11.27;4.90;;;;;;;22.29;100.00;102599.00;2614953;36;20110;-67
2021/08/31 12:15:08;;;;;;;15.70;5.13;;;;;;;21.76;100.00;102599.31;2616252;36;20163;-65
2021/08/31 12:17:41;;;;;;;10.98;4.05;;;;;;;22.58;100.00;102595.75;2616619;36;20511;-65
2021/08/31 12:20:13;;;;;;;11.00;4.32;;;;;;;22.69;100.00;102600.88;2615697;36;20125;-66
2021/08/31 12:22:43;;;;;;;12.10;4.72;;;;;;;22.07;100.00;102600.53;2616593;36;20114;-66
2021/08/31 12:25:13;;;;;;;15.95;4.60;;;;;;;21.19;100.00;102608.16;2616666;36;20026;-66
2021/08/31 12:27:46;;;;;;;12.55;4.75;;;;;;;21.08;100.00;102611.16;2615668;36;20165;-66
2021/08/31 12:30:16;;;;;;;18.02;5.18;;;;;;;21.50;100.00;102599.38;2615778;36;20114;-68
2021/08/31 12:32:45;;;;;;;11.15;4.13;;;;;;;21.93;100.00;102597.44;2616538;36;20054;-66
2021/08/31 12:35:22;;;;;;;;;;;;;;;22.64;100.00;102600.53;2616197;36;20122;-68
2021/08/31 12:38:06;;;;;;;12.27;4.25;;;;;;;22.82;100.00;102602.22;2615877;31;19938;-66
2021/08/31 12:40:36;;;;;;;11.85;4.60;;;;;;;22.60;100.00;102604.69;2616978;36;20034;-67
2021/08/31 12:43:09;;;;;;;14.10;4.32;;;;;;;21.44;100.00;102613.75;2616036;36;20124;-68
2021/08/31 12:45:38;;;;;;;13.85;4.70;;;;;;;20.72;100.00;102608.56;2615515;36;21565;-68
2021/08/31 12:48:09;;;;;;;11.88;4.53;;;;;;;20.67;100.00;102620.00;2617098;36;20081;-66
2021/08/31 12:50:51;;;;;;;11.77;4.15;;;;;;;20.88;100.00;102618.78;2616814;36;20027;-68
2021/08/31 12:53:20;;;;;;;14.27;4.65;;;;;;;21.06;100.00;102610.47;2617459;36;20029;-67
2021/08/31 12:56:01;;;;;;;;;;;;;;;21.37;100.00;102618.16;2617025;36;20078;-68
2021/08/31 12:58:34;;;;;;;14.82;4.70;;;;;;;21.76;100.00;102613.00;2615671;36;20049;-66
2021/08/31 13:01:15;;;;;;;11.75;4.60;;;;;;;22.02;100.00;102614.75;2617472;31;20031;-68
2021/08/31 13:03:46;;;;;;;14.45;4.95;;;;;;;22.11;100.00;102613.72;2617147;36;20018;-67
2021/08/31 13:06:36;;;;;;;11.02;4.65;;;;;;;21.68;100.00;102624.78;2617348;36;20532;-67
2021/08/31 13:09:09;;;;;;;11.93;4.35;;;;;;;21.66;100.00;102618.63;2616826;36;20042;-65